Time;durP1;ratioP1;P1;durP2;ratioP2;P2;SDS_P1;SDS_P2;PMS_P1;PMS_P2;Temp;Humidity;BMP_temperature;BMP_pressure;BME280_temperature;BME280_humidity;BME280_pressure;Samples;Min_cycle;Max_cycle;Signal;HPM_P1;HPM_P2
2022/11/13 00:00:18;;;;;;;;;;;;;;;3.83;72.14;102241.63;5044952;28;19955;-31
2022/11/13 00:02:44;;;;;;;;;;;;;;;3.83;71.70;102252.06;5051632;28;19970;-31
2022/11/13 00:05:09;;;;;;;;;;;;;;;3.82;72.00;102247.69;5035352;28;19917;-33
2022/11/13 00:07:34;;;;;;;;;;;;;;;3.81;71.94;102243.28;5043752;28;20227;-32
2022/11/13 00:09:59;;;;;;;;;;;;;;;3.78;71.44;102241.44;5053669;28;19917;-33
2022/11/13 00:12:24;;;;;;;;;;;;;;;3.79;72.09;102239.69;5045877;28;19979;-33
2022/11/13 00:14:50;;;;;;;;;;;;;;;3.78;72.02;102237.94;5046048;28;19970;-34
2022/11/13 00:17:15;;;;;;;;;;;;;;;3.78;71.81;102237.94;5055050;28;19917;-33
2022/11/13 00:19:40;;;;;;;;;;;;;;;3.76;71.59;102239.59;5045222;28;19947;-33
2022/11/13 00:22:05;;;;;;;;;;;;;;;3.76;71.45;102242.22;5044245;28;20624;-32
2022/11/13 00:24:30;;;;;;;;;;;;;;;3.75;71.79;102236.09;5052982;28;20445;-33
2022/11/13 00:26:56;;;;;;;;;;;;;;;3.75;71.87;102240.41;5037251;28;20397;-31
2022/11/13 00:29:21;;;;;;;;;;;;;;;3.73;71.17;102245.53;5053549;28;20448;-31
2022/11/13 00:31:46;;;;;;;;;;;;;;;3.72;71.27;102246.38;5050381;28;21452;-31
2022/11/13 00:34:11;;;;;;;;;;;;;;;3.70;71.23;102235.88;5053424;28;19917;-31
2022/11/13 00:36:37;;;;;;;;;;;;;;;3.69;71.64;102234.09;5052216;28;19943;-31
2022/11/13 00:39:02;;;;;;;;;;;;;;;3.67;71.72;102230.50;5054054;28;19923;-31
2022/11/13 00:41:27;;;;;;;;;;;;;;;3.66;71.70;102223.50;5053513;28;20028;-31
2022/11/13 00:43:53;;;;;;;;;;;;;;;3.67;71.48;102224.41;5048552;28;19921;-31
2022/11/13 00:46:18;;;;;;;;;;;;;;;3.64;71.53;102233.00;5048434;28;19917;-31
2022/11/13 00:48:43;;;;;;;;;;;;;;;3.62;71.44;102232.03;5045100;28;19917;-31
2022/11/13 00:51:08;;;;;;;;;;;;;;;3.63;71.60;102230.31;5044233;28;19920;-31
2022/11/13 00:53:34;;;;;;;;;;;;;;;3.62;71.96;102228.50;5050138;28;20428;-33
2022/11/13 00:55:59;;;;;;;;;;;;;;;3.59;71.63;102226.66;5041919;28;20354;-34
2022/11/13 00:58:24;;;;;;;;;;;;;;;3.59;71.54;102226.66;5042503;28;19917;-34
2022/11/13 01:00:49;;;;;;;;;;;;;;;3.58;71.64;102237.94;5046871;28;19917;-33
2022/11/13 01:03:15;;;;;;;;;;;;;;;3.56;71.54;102226.53;5051633;28;19917;-33
2022/11/13 01:05:41;;;;;;;;;;;;;;;3.56;71.89;102236.97;5051266;28;19970;-33
2022/11/13 01:08:07;;;;;;;;;;;;;;;3.56;71.37;102232.66;5046912;28;19924;-31
2022/11/13 01:10:32;;;;;;;;;;;;;;;3.53;71.29;102227.28;5043260;28;19917;-32
2022/11/13 01:12:57;;;;;;;;;;;;;;;3.53;71.58;102231.63;5052490;28;19967;-32
2022/11/13 01:15:23;;;;;;;;;;;;;;;3.50;71.45;102227.13;5042186;28;19917;-32
2022/11/13 01:17:48;;;;;;;;;;;;;;;3.50;71.61;102226.28;5048021;28;19917;-32
2022/11/13 01:20:13;;;;;;;;;;;;;;;3.48;71.54;102223.59;5028021;28;20011;-32
2022/11/13 01:22:38;;;;;;;;;;;;;;;3.48;71.51;102210.53;5046460;28;19999;-31
2022/11/13 01:25:04;;;;;;;;;;;;;;;3.46;71.93;102207.84;5053671;28;19917;-31
2022/11/13 01:27:29;;;;;;;;;;;;;;;3.45;71.60;102207.78;5027947;28;20279;-31
2022/11/13 01:29:54;;;;;;;;;;;;;;;3.44;71.79;102206.00;5044007;28;19917;-31
2022/11/13 01:32:20;;;;;;;;;;;;;;;3.41;71.58;102209.38;5047581;28;19924;-32
2022/11/13 01:34:45;;;;;;;;;;;;;;;3.40;71.76;102211.91;5044629;28;20424;-30
2022/11/13 01:37:11;;;;;;;;;;;;;;;3.40;71.56;102215.41;5052152;28;19921;-31
2022/11/13 01:39:36;;;;;;;;;;;;;;;3.38;71.57;102206.63;5050765;28;20288;-31
2022/11/13 01:42:02;;;;;;;;;;;;;;;3.37;71.39;102211.78;5045916;28;19983;-31
2022/11/13 01:44:43;;;;;;;;;;;;;;;3.37;71.94;102222.19;5034372;28;19975;-31
2022/11/13 01:47:09;;;;;;;;;;;;;;;3.34;71.62;102210.78;5050002;28;20021;-31
2022/11/13 01:49:35;;;;;;;;;;;;;;;3.33;71.68;102213.31;5041976;28;20003;-31
2022/11/13 01:52:05;;;;;;;;;;;;;;;3.31;71.99;102225.44;5041244;28;20430;-31
2022/11/13 01:54:40;;;;;;;;;;;;;;;3.30;71.96;102218.44;5033670;28;20556;-32
2022/11/13 01:57:05;;;;;;;;;;;;;;;3.30;71.38;102221.03;5040822;28;20012;-32
2022/11/13 01:59:31;;;;;;;;;;;;;;;3.29;71.71;102224.44;5044693;28;19956;-33
2022/11/13 02:01:57;;;;;;;;;;;;;;;3.28;71.83;102217.44;5053101;28;19970;-33
2022/11/13 02:04:22;;;;;;;;;;;;;;;3.26;71.56;102217.38;5026867;28;19917;-33
2022/11/13 02:06:48;;;;;;;;;;;;;;;3.26;71.57;102209.56;5044180;28;20505;-34
2022/11/13 02:09:14;;;;;;;;;;;;;;;3.24;71.64;102199.88;5033918;28;20016;-34
2022/11/13 02:11:39;;;;;;;;;;;;;;;3.23;71.76;102200.72;5017955;28;20020;-34
2022/11/13 02:14:06;;;;;;;;;;;;;;;3.23;71.79;102195.50;5030723;28;20012;-34
2022/11/13 02:16:31;;;;;;;;;;;;;;;3.20;71.52;102191.00;5051351;28;19956;-34
2022/11/13 02:18:56;;;;;;;;;;;;;;;3.20;71.80;102189.31;5030600;28;19987;-34
2022/11/13 02:21:40;;;;;;;;;;;;;;;3.18;71.74;102187.47;5051272;28;19916;-35
2022/11/13 02:24:08;;;;;;;;;;;;;;;3.15;71.89;102188.22;5048550;28;19917;-34
2022/11/13 02:26:33;;;;;;;;;;;;;;;3.15;71.49;102185.59;5049393;28;19963;-34
2022/11/13 02:28:58;;;;;;;;;;;;;;;3.13;72.09;102187.22;5043175;28;19921;-34
2022/11/13 02:31:23;;;;;;;;;;;;;;;3.12;71.84;102198.50;5044947;28;19971;-34
2022/11/13 02:33:49;;;;;;;;;;;;;;;3.13;72.02;102188.97;5049965;28;19932;-33
2022/11/13 02:36:14;;;;;;;;;;;;;;;3.11;71.98;102180.16;5026758;28;19972;-34
2022/11/13 02:38:39;;;;;;;;;;;;;;;3.10;72.02;102184.47;5050844;28;19921;-34
2022/11/13 02:41:05;;;;;;;;;;;;;;;3.08;72.10;102191.34;5033304;28;19921;-34
2022/11/13 02:43:30;;;;;;;;;;;;;;;3.07;71.57;102179.16;5043177;28;19931;-34
2022/11/13 02:45:55;;;;;;;;;;;;;;;3.07;71.81;102179.16;5049553;28;19928;-34
2022/11/13 02:48:20;;;;;;;;;;;;;;;3.06;71.79;102178.25;5046331;28;19921;-34
2022/11/13 02:50:45;;;;;;;;;;;;;;;3.04;72.11;102174.66;5048450;28;20015;-31
2022/11/13 02:53:11;;;;;;;;;;;;;;;3.04;72.19;102173.78;5049868;28;19921;-33
2022/11/13 02:55:36;;;;;;;;;;;;;;;3.02;71.70;102168.50;5030798;28;19917;-32
2022/11/13 02:58:01;;;;;;;;;;;;;;;3.02;71.93;102165.88;5038991;28;19917;-32
2022/11/13 03:00:26;;;;;;;;;;;;;;;3.02;72.02;102175.41;5029103;28;19928;-32
2022/11/13 03:02:52;;;;;;;;;;;;;;;3.00;71.90;102172.72;5042033;28;19924;-32
2022/11/13 03:05:17;;;;;;;;;;;;;;;2.99;71.73;102170.06;5043687;28;20407;-32
2022/11/13 03:07:42;;;;;;;;;;;;;;;2.99;72.08;102172.66;5042194;28;20390;-32
2022/11/13 03:10:08;;;;;;;;;;;;;;;2.98;72.24;102163.06;5043937;28;19939;-33
2022/11/13 03:12:33;;;;;;;;;;;;;;;2.97;71.90;102163.91;5046395;28;20349;-32
2022/11/13 03:14:58;;;;;;;;;;;;;;;2.94;71.83;102152.50;5031712;28;19920;-32
2022/11/13 03:17:23;;;;;;;;;;;;;;;2.92;72.30;102164.56;5048546;28;19917;-32
2022/11/13 03:19:49;;;;;;;;;;;;;;;2.93;72.03;102161.13;5030875;28;19932;-32
2022/11/13 03:22:14;;;;;;;;;;;;;;;2.93;72.39;102161.13;5049798;28;19924;-32
2022/11/13 03:24:39;;;;;;;;;;;;;;;2.92;72.40;102158.47;5048528;28;19925;-32
2022/11/13 03:27:04;;;;;;;;;;;;;;;2.91;72.40;102160.19;5050313;28;19917;-32
2022/11/13 03:29:30;;;;;;;;;;;;;;;2.89;72.38;102163.53;5047800;28;19962;-32
2022/11/13 03:31:55;;;;;;;;;;;;;;;2.89;72.34;102160.91;5047568;28;19967;-33
2022/11/13 03:34:20;;;;;;;;;;;;;;;2.88;71.98;102156.53;5043585;28;19917;-33
2022/11/13 03:36:45;;;;;;;;;;;;;;;2.86;72.51;102152.97;5046704;28;19989;-32
2022/11/13 03:39:10;;;;;;;;;;;;;;;2.86;72.15;102164.28;5046849;28;19916;-32
2022/11/13 03:41:36;;;;;;;;;;;;;;;2.85;72.12;102162.50;5020418;28;19917;-32
2022/11/13 03:44:01;;;;;;;;;;;;;;;2.84;72.39;102160.72;5038985;28;19925;-32
2022/11/13 03:46:26;;;;;;;;;;;;;;;2.84;72.51;102154.59;5047627;28;19920;-32
2022/11/13 03:48:51;;;;;;;;;;;;;;;2.85;72.32;102156.38;5044914;28;19954;-32
2022/11/13 03:51:16;;;;;;;;;;;;;;;2.83;72.67;102145.88;5050088;28;20008;-34
2022/11/13 03:53:42;;;;;;;;;;;;;;;2.83;72.76;102153.72;5051458;28;20401;-34
2022/11/13 03:56:07;;;;;;;;;;;;;;;2.82;72.44;102147.63;5040500;28;19916;-34
2022/11/13 03:58:32;;;;;;;;;;;;;;;2.82;72.48;102147.63;5031576;28;20015;-32
2022/11/13 04:00:58;;;;;;;;;;;;;;;2.84;72.58;102146.78;5049946;28;20386;-32
2022/11/13 04:03:23;;;;;;;;;;;;;;;2.83;72.67;102138.06;5040960;28;19927;-32
2022/11/13 04:05:48;;;;;;;;;;;;;;;2.82;72.60;102144.09;5042303;28;19920;-32
2022/11/13 04:08:14;;;;;;;;;;;;;;;2.82;72.82;102131.09;5047002;28;19917;-32
2022/11/13 04:10:39;;;;;;;;;;;;;;;2.82;72.90;102125.88;5047815;28;19925;-32
2022/11/13 04:13:04;;;;;;;;;;;;;;;2.83;72.87;102127.66;5047953;28;19921;-32
2022/11/13 04:15:30;;;;;;;;;;;;;;;2.83;72.99;102122.44;5046792;28;19923;-32
2022/11/13 04:17:55;;;;;;;;;;;;;;;2.84;73.05;102121.63;5043958;28;19927;-32
2022/11/13 04:20:20;;;;;;;;;;;;;;;2.84;73.08;102124.25;5048159;28;19923;-32
2022/11/13 04:22:46;;;;;;;;;;;;;;;2.85;73.17;102126.00;5022353;28;19916;-32
2022/11/13 04:25:11;;;;;;;;;;;;;;;2.87;73.17;102129.56;5032613;28;20274;-32
2022/11/13 04:27:36;;;;;;;;;;;;;;;2.86;73.23;102125.19;5047276;28;20337;-32
2022/11/13 04:30:02;;;;;;;;;;;;;;;2.88;72.91;102110.53;5049497;28;19921;-32
2022/11/13 04:32:27;;;;;;;;;;;;;;;2.91;73.05;102112.38;5047555;28;19925;-33
2022/11/13 04:34:53;;;;;;;;;;;;;;;2.92;72.75;102107.22;5050445;28;19979;-33
2022/11/13 04:37:18;;;;;;;;;;;;;;;2.92;73.22;102117.66;5031701;28;19962;-33
2022/11/13 04:39:43;;;;;;;;;;;;;;;2.93;73.16;102108.09;5045641;28;19978;-32
2022/11/13 04:44:55;;;;;;;;;;;;;;;2.93;72.74;102114.22;5055622;28;20282;-32
2022/11/13 04:47:20;;;;;;;;;;;;;;;2.95;73.14;102115.19;5044866;28;19917;-31
2022/11/13 04:49:46;;;;;;;;;;;;;;;2.96;73.32;102113.47;5054244;28;19920;-31
2022/11/13 04:52:11;;;;;;;;;;;;;;;2.97;73.15;102109.16;5052773;28;20441;-33
2022/11/13 04:54:37;;;;;;;;;;;;;;;2.97;72.85;102116.97;5053419;28;20339;-32
2022/11/13 04:57:02;;;;;;;;;;;;;;;2.97;73.23;102109.16;5053990;28;20067;-31
2022/11/13 04:59:27;;;;;;;;;;;;;;;2.95;72.87;102107.38;5058036;28;20366;-33
2022/11/13 05:01:54;;;;;;;;;;;;;;;2.95;73.49;102109.09;5053363;28;19986;-32
2022/11/13 05:04:19;;;;;;;;;;;;;;;2.96;73.14;102103.03;5044722;28;19928;-32
2022/11/13 05:06:45;;;;;;;;;;;;;;;2.97;73.02;102109.16;5052019;28;19924;-33
2022/11/13 05:09:10;;;;;;;;;;;;;;;2.98;73.22;102106.63;5044633;28;21242;-33
2022/11/13 05:11:35;;;;;;;;;;;;;;;2.98;73.39;102106.63;5014957;28;20385;-33
2022/11/13 05:14:00;;;;;;;;;;;;;;;3.00;73.33;102104.97;5032847;28;19924;-33
2022/11/13 05:16:26;;;;;;;;;;;;;;;2.99;72.98;102100.56;5025710;28;19917;-33
2022/11/13 05:18:51;;;;;;;;;;;;;;;3.02;73.31;102107.63;5044478;28;19917;-33
2022/11/13 05:21:16;;;;;;;;;;;;;;;3.01;73.29;102098.03;5054331;28;19924;-33
2022/11/13 05:23:41;;;;;;;;;;;;;;;3.03;72.87;102101.63;5044730;28;19916;-34
2022/11/13 05:26:07;;;;;;;;;;;;;;;3.03;73.02;102109.44;5051097;28;20362;-34
2022/11/13 05:28:32;;;;;;;;;;;;;;;3.02;73.21;102103.34;5042193;28;20300;-34
2022/11/13 05:31:04;;;;;;;;;;;;;;;3.04;73.05;102098.19;5051204;28;19921;-32
2022/11/13 05:33:30;;;;;;;;;;;;;;;3.04;73.45;102106.88;5049845;28;19924;-33
2022/11/13 05:35:59;;;;;;;;;;;;;;;3.04;73.12;102106.00;5042996;28;20374;-33
2022/11/13 05:38:24;;;;;;;;;;;;;;;3.05;72.94;102102.56;5048605;28;19960;-34
2022/11/13 05:40:49;;;;;;;;;;;;;;;3.06;73.13;102101.75;5048947;28;19960;-33
2022/11/13 05:43:15;;;;;;;;;;;;;;;3.05;73.36;102090.44;5044757;28;19948;-33
2022/11/13 05:45:40;;;;;;;;;;;;;;;3.07;73.28;102101.81;5023739;28;19917;-34
2022/11/13 05:48:05;;;;;;;;;;;;;;;3.08;73.58;102100.09;5045484;28;19943;-32
2022/11/13 05:50:30;;;;;;;;;;;;;;;3.08;73.12;102102.72;5017444;28;19917;-33
2022/11/13 05:52:55;;;;;;;;;;;;;;;3.08;73.16;102098.38;5044646;28;19921;-34
2022/11/13 05:55:21;;;;;;;;;;;;;;;3.09;73.07;102094.06;5032749;28;19942;-34
2022/11/13 05:57:46;;;;;;;;;;;;;;;3.11;73.59;102092.44;5028898;28;19928;-33
2022/11/13 06:00:11;;;;;;;;;;;;;;;3.10;73.52;102080.19;5034538;28;19917;-33
2022/11/13 06:02:37;;;;;;;;;;;;;;;3.12;73.20;102078.56;5049106;28;19917;-33
2022/11/13 06:05:02;;;;;;;;;;;;;;;3.12;73.36;102077.66;5046270;28;19970;-31
2022/11/13 06:07:27;;;;;;;;;;;;;;;3.12;73.34;102077.66;5052501;28;20053;-31
2022/11/13 06:09:52;;;;;;;;;;;;;;;3.11;73.11;102082.00;5031724;28;20524;-32
2022/11/13 06:12:17;;;;;;;;;;;;;;;3.12;73.34;102073.34;5053125;28;19921;-32
2022/11/13 06:14:43;;;;;;;;;;;;;;;3.12;73.39;102082.88;5044801;28;19933;-34
2022/11/13 06:17:08;;;;;;;;;;;;;;;3.11;73.44;102087.22;5050813;28;19969;-34
2022/11/13 06:19:33;;;;;;;;;;;;;;;3.11;73.06;102091.53;5044615;28;19925;-33
2022/11/13 06:21:58;;;;;;;;;;;;;;;3.13;73.28;102092.50;5044688;28;19917;-34
2022/11/13 06:24:24;;;;;;;;;;;;;;;3.12;73.02;102086.38;5049815;28;19920;-33
2022/11/13 06:26:49;;;;;;;;;;;;;;;3.13;73.18;102090.75;5045283;28;19924;-34
2022/11/13 06:29:14;;;;;;;;;;;;;;;3.15;73.07;102099.56;5032030;28;19916;-32
2022/11/13 06:31:40;;;;;;;;;;;;;;;3.15;73.35;102081.31;5033064;28;19921;-32
2022/11/13 06:34:05;;;;;;;;;;;;;;;3.16;73.27;102101.34;5047856;28;19990;-32
2022/11/13 06:36:31;;;;;;;;;;;;;;;3.18;72.82;102099.69;5028890;28;19923;-32
2022/11/13 06:38:57;;;;;;;;;;;;;;;3.18;72.99;102088.38;5029430;28;19925;-31
2022/11/13 06:41:23;;;;;;;;;;;;;;;3.16;73.10;102095.22;5051053;28;19932;-32
2022/11/13 06:43:49;;;;;;;;;;;;;;;3.17;73.32;102097.91;5044951;28;19917;-32
2022/11/13 06:46:18;;;;;;;;;;;;;;;3.17;73.16;102090.06;5015640;28;19939;-31
2022/11/13 06:48:44;;;;;;;;;;;;;;;3.18;73.11;102093.59;5046849;28;19963;-32
2022/11/13 06:51:12;;;;;;;;;;;;;;;3.17;73.62;102095.28;5050030;28;19964;-32
2022/11/13 06:53:37;;;;;;;;;;;;;;;3.15;73.45;102091.75;5040140;28;20361;-32
2022/11/13 06:56:03;;;;;;;;;;;;;;;3.17;73.02;102091.81;5043863;28;19967;-32
2022/11/13 06:58:29;;;;;;;;;;;;;;;3.18;73.10;102084.06;5046691;28;19924;-32
2022/11/13 07:00:54;;;;;;;;;;;;;;;3.19;73.36;102091.03;5043509;28;19917;-32
2022/11/13 07:03:21;;;;;;;;;;;;;;;3.19;73.23;102088.44;5045235;28;20011;-33
2022/11/13 07:05:46;;;;;;;;;;;;;;;3.20;72.78;102086.72;5046520;28;20011;-35
2022/11/13 07:08:12;;;;;;;;;;;;;;;3.21;73.04;102086.78;5043348;28;20387;-34
2022/11/13 07:10:38;;;;;;;;;;;;;;;3.20;73.14;102061.53;5026295;28;19928;-34
2022/11/13 07:13:03;;;;;;;;;;;;;;;3.18;73.10;102052.78;5029612;28;19920;-34
2022/11/13 07:15:28;;;;;;;;;;;;;;;3.21;73.52;102057.22;5043081;28;19921;-34
2022/11/13 07:17:53;;;;;;;;;;;;;;;3.19;73.04;102059.75;5044462;28;19929;-34
2022/11/13 07:20:19;;;;;;;;;;;;;;;3.19;73.66;102064.97;5029443;28;19977;-34
2022/11/13 07:22:44;;;;;;;;;;;;;;;3.19;73.19;102057.16;5048093;28;20550;-33
2022/11/13 07:25:09;;;;;;;;;;;;;;;3.20;73.40;102050.19;5048668;28;20589;-31
2022/11/13 07:27:34;;;;;;;;;;;;;;;3.19;73.48;102044.13;5046543;28;20067;-31
2022/11/13 07:29:59;;;;;;;;;;;;;;;3.21;73.49;102046.78;5042478;28;19956;-31
2022/11/13 07:32:25;;;;;;;;;;;;;;;3.23;73.77;102049.47;5046137;28;19921;-32
2022/11/13 07:34:50;;;;;;;;;;;;;;;3.23;73.27;102047.72;5048444;28;20514;-31
2022/11/13 07:37:15;;;;;;;;;;;;;;;3.23;73.18;102049.47;5044447;28;20441;-31
2022/11/13 07:39:40;;;;;;;;;;;;;;;3.20;73.81;102045.88;5046845;28;19998;-31
2022/11/13 07:42:06;;;;;;;;;;;;;;;3.20;73.52;102044.97;5047806;28;19962;-31
2022/11/13 07:44:31;;;;;;;;;;;;;;;3.23;73.29;102050.34;5047906;28;19917;-31
2022/11/13 07:46:56;;;;;;;;;;;;;;;3.23;73.41;102050.34;5048084;28;19916;-31
2022/11/13 07:49:21;;;;;;;;;;;;;;;3.24;73.85;102066.88;5049421;28;19917;-31
2022/11/13 07:51:47;;;;;;;;;;;;;;;3.26;73.83;102065.22;5045487;28;19932;-31
2022/11/13 07:54:12;;;;;;;;;;;;;;;3.24;73.81;102062.56;5006123;28;19929;-31
2022/11/13 07:56:37;;;;;;;;;;;;;;;3.25;74.42;102068.66;5048308;28;20012;-31
2022/11/13 07:59:02;;;;;;;;;;;;;;;3.26;74.38;102066.13;5048529;28;19939;-32
2022/11/13 08:01:28;;;;;;;;;;;;;;;3.26;73.89;102062.63;5048751;28;20336;-31
2022/11/13 08:03:54;;;;;;;;;;;;;;;3.25;74.22;102056.53;5044839;28;20373;-32
2022/11/13 08:06:19;;;;;;;;;;;;;;;3.28;74.32;102053.16;5027098;28;19935;-32
2022/11/13 08:08:46;;;;;;;;;;;;;;;3.29;74.33;102060.16;5047382;28;20015;-32
2022/11/13 08:11:11;;;;;;;;;;;;;;;3.29;74.06;102054.94;5047289;28;20366;-33
2022/11/13 08:13:37;;;;;;;;;;;;;;;3.29;74.45;102055.84;5049394;28;19931;-32
2022/11/13 08:16:02;;;;;;;;;;;;;;;3.30;74.51;102041.97;5029354;28;19917;-33
2022/11/13 08:18:28;;;;;;;;;;;;;;;3.33;74.57;102046.41;5053253;28;19949;-33
2022/11/13 08:20:53;;;;;;;;;;;;;;;3.34;74.45;102037.78;5047006;28;19925;-34
2022/11/13 08:23:19;;;;;;;;;;;;;;;3.34;74.77;102049.09;5049803;28;19940;-34
2022/11/13 08:25:44;;;;;;;;;;;;;;;3.34;74.48;102040.38;5047852;28;19917;-34
2022/11/13 08:28:09;;;;;;;;;;;;;;;3.37;74.79;102043.09;5051735;28;20012;-31
2022/11/13 08:30:34;;;;;;;;;;;;;;;3.38;74.99;102039.69;5051692;28;19933;-32
2022/11/13 08:33:01;;;;;;;;;;;;;;;3.40;74.98;102048.47;5047889;28;19936;-32
2022/11/13 08:35:26;;;;;;;;;;;;;;;3.41;74.68;102039.84;5044782;28;20282;-33
2022/11/13 08:37:51;;;;;;;;;;;;;;;3.44;74.63;102045.16;5044042;28;19925;-33
2022/11/13 08:40:17;;;;;;;;;;;;;;;3.47;74.73;102040.06;5046760;28;19924;-33
2022/11/13 08:42:42;;;;;;;;;;;;;;;3.52;74.85;102052.41;5030104;28;19917;-34
2022/11/13 08:45:07;;;;;;;;;;;;;;;3.55;75.23;102057.78;5049281;28;19924;-33
2022/11/13 08:47:33;;;;;;;;;;;;;;;3.56;74.96;102047.41;5052587;28;20373;-33
2022/11/13 08:49:58;;;;;;;;;;;;;;;3.57;75.47;102037.88;5053147;28;20010;-33
2022/11/13 08:52:23;;;;;;;;;;;;;;;3.59;74.86;102047.53;5049170;28;19921;-33
2022/11/13 08:54:48;;;;;;;;;;;;;;;3.61;74.99;102042.38;5027458;28;19931;-34
2022/11/13 08:57:14;;;;;;;;;;;;;;;3.63;75.04;102042.44;5047094;28;19935;-33
2022/11/13 08:59:39;;;;;;;;;;;;;;;3.66;75.40;102051.28;5050837;28;19924;-34
2022/11/13 09:02:04;;;;;;;;;;;;;;;3.66;75.39;102039.94;5047092;28;20270;-33
2022/11/13 09:04:30;;;;;;;;;;;;;;;3.68;75.23;102047.03;5035604;28;19928;-34
2022/11/13 09:06:55;;;;;;;;;;;;;;;3.69;74.78;102040.06;5053341;28;19913;-33
2022/11/13 09:09:21;;;;;;;;;;;;;;;3.71;74.99;102044.53;5049510;28;19927;-34
2022/11/13 09:11:46;;;;;;;;;;;;;;;3.74;75.27;102045.50;5050464;28;20071;-34
2022/11/13 09:14:12;;;;;;;;;;;;;;;3.76;75.36;102039.50;5046756;28;20012;-34
2022/11/13 09:16:37;;;;;;;;;;;;;;;3.78;76.04;102039.56;5048559;28;19971;-32
2022/11/13 09:19:02;;;;;;;;;;;;;;;3.82;75.39;102038.88;5045552;28;19975;-33
2022/11/13 09:21:28;;;;;;;;;;;;;;;3.86;75.34;102046.00;5032586;28;19924;-32
2022/11/13 09:23:53;;;;;;;;;;;;;;;3.89;75.65;102048.72;5047319;28;20474;-32
2022/11/13 09:26:18;;;;;;;;;;;;;;;3.90;75.26;102037.44;5045719;28;19924;-32
2022/11/13 09:28:43;;;;;;;;;;;;;;;3.93;75.81;102034.97;5023121;28;19923;-33
2022/11/13 09:31:09;;;;;;;;;;;;;;;3.95;75.51;102042.88;5052108;28;20436;-32
2022/11/13 09:33:34;;;;;;;;;;;;;;;3.98;74.96;102048.22;5020385;28;19967;-34
2022/11/13 09:35:59;;;;;;;;;;;;;;;4.00;74.88;102043.94;5050990;28;19966;-34
2022/11/13 09:38:25;;;;;;;;;;;;;;;4.02;74.99;102044.00;5052208;28;19943;-32
2022/11/13 09:40:53;;;;;;;;;;;;;;;4.04;75.38;102044.97;5046765;28;20412;-32
2022/11/13 09:43:27;;;;;;;;;;;;;;;4.06;74.77;102036.34;5033627;28;19943;-34
2022/11/13 09:45:53;;;;;;;;;;;;;;;4.09;75.30;102032.97;5044228;28;19968;-33
2022/11/13 09:48:21;;;;;;;;;;;;;;;4.13;74.76;102026.16;5042029;28;19956;-34
2022/11/13 09:50:46;;;;;;;;;;;;;;;4.15;74.75;102030.63;5042831;28;19974;-32
2022/11/13 09:53:13;;;;;;;;;;;;;;;4.14;74.85;102021.00;5043821;28;19921;-33
2022/11/13 09:55:49;;;;;;;;;;;;;;;4.15;75.12;102022.78;5029991;28;20393;-33
2022/11/13 09:58:20;;;;;;;;;;;;;;;4.18;74.86;102016.78;5033857;28;19924;-34
2022/11/13 10:00:46;;;;;;;;;;;;;;;4.20;75.05;102017.75;5032595;28;19960;-32
2022/11/13 10:03:30;;;;;;;;;;;;;;;4.23;74.45;102008.28;5052488;28;19960;-32
2022/11/13 10:05:58;;;;;;;;;;;;;;;4.24;74.79;102002.22;5032825;28;19924;-34
2022/11/13 10:08:23;;;;;;;;;;;;;;;4.24;74.93;101999.63;5049978;28;20388;-32
2022/11/13 10:10:51;;;;;;;;;;;;;;;4.27;74.93;101997.97;5045445;28;19917;-32
2022/11/13 10:13:33;;;;;;;;;;;;;;;4.30;75.10;101987.66;5026022;28;19975;-33
2022/11/13 10:16:19;;;;;;;;;;;;;;;4.32;74.62;101989.47;5044485;28;20019;-32
2022/11/13 10:18:44;;;;;;;;;;;;;;;4.34;74.44;101990.41;5049162;28;19920;-33
2022/11/13 10:21:14;;;;;;;;;;;;;;;4.37;74.70;101979.22;5024951;28;20186;-32
2022/11/13 10:23:39;;;;;;;;;;;;;;;4.40;74.50;101978.44;5025010;28;19917;-32
2022/11/13 10:26:12;;;;;;;;;;;;;;;4.41;74.39;101982.81;5050555;28;20389;-32
2022/11/13 10:28:39;;;;;;;;;;;;;;;4.44;75.05;101980.31;5048359;28;19924;-33
2022/11/13 10:31:05;;;;;;;;;;;;;;;4.45;74.53;101975.16;5044717;28;19974;-33
2022/11/13 10:33:30;;;;;;;;;;;;;;;4.47;74.92;101978.69;5047599;28;20007;-32
2022/11/13 10:36:02;;;;;;;;;;;;;;;4.51;74.55;101973.59;5043427;28;20331;-33
2022/11/13 10:38:43;;;;;;;;;;;;;;;4.51;75.21;101976.22;5031214;28;19916;-33
2022/11/13 10:41:08;;;;;;;;;;;;;;;4.54;75.07;101972.00;5032640;28;19960;-32
2022/11/13 10:43:33;;;;;;;;;;;;;;;4.57;74.85;101966.00;5045384;28;20014;-32
2022/11/13 10:46:00;;;;;;;;;;;;;;;4.59;75.11;101969.53;5052185;28;19956;-32
2022/11/13 10:48:28;;;;;;;;;;;;;;;4.61;75.12;101968.75;5051650;28;19948;-32
2022/11/13 10:50:57;;;;;;;;;;;;;;;4.64;74.89;101956.66;5052898;28;19960;-32
2022/11/13 10:53:24;;;;;;;;;;;;;;;4.66;74.62;101953.25;5037695;28;19920;-31
2022/11/13 10:55:49;;;;;;;;;;;;;;;4.67;74.87;101947.19;5045596;28;20007;-32
2022/11/13 10:58:16;;;;;;;;;;;;;;;4.71;74.55;101956.91;5033094;28;19960;-33
2022/11/13 11:00:43;;;;;;;;;;;;;;;4.73;74.36;101950.03;5045249;28;19917;-33
2022/11/13 11:03:24;;;;;;;;;;;;;;;4.75;74.29;101947.47;5049701;28;19920;-31
2022/11/13 11:05:56;;;;;;;;;;;;;;;4.77;74.98;101942.28;5042703;28;20340;-33
2022/11/13 11:08:28;;;;;;;;;;;;;;;4.79;74.41;101932.78;5034084;28;20316;-33
2022/11/13 11:13:40;;;;;;;;;;;;;;;4.84;74.32;101934.72;5032021;28;20357;-33
2022/11/13 11:16:05;;;;;;;;;;;;;;;4.86;74.22;101937.38;5030272;28;19955;-31
2022/11/13 11:18:33;;;;;;;;;;;;;;;4.90;74.48;101934.03;5046011;28;20297;-33
2022/11/13 11:21:00;;;;;;;;;;;;;;;4.91;74.63;101941.06;5053584;28;19999;-33
2022/11/13 11:23:44;;;;;;;;;;;;;;;4.94;74.80;101935.91;5049923;28;19921;-32
2022/11/13 11:26:12;;;;;;;;;;;;;;;4.96;74.49;101917.66;5042117;28;19939;-32
2022/11/13 11:28:58;;;;;;;;;;;;;;;4.99;74.43;101929.13;5043932;28;19917;-33
2022/11/13 11:31:29;;;;;;;;;;;;;;;5.01;74.37;101926.56;5027226;28;20401;-31
2022/11/13 11:34:00;;;;;;;;;;;;;;;5.02;74.67;101925.72;5042905;28;19921;-31
2022/11/13 11:36:28;;;;;;;;;;;;;;;5.04;74.36;101921.47;5043572;28;19925;-31
2022/11/13 11:39:03;;;;;;;;;;;;;;;5.06;74.97;101908.41;5044916;28;20410;-31
2022/11/13 11:41:30;;;;;;;;;;;;;;;5.08;74.71;101905.03;5032207;28;19923;-31
2022/11/13 11:44:00;;;;;;;;;;;;;;;5.09;74.94;101905.91;5056035;28;19924;-32
2022/11/13 11:46:27;;;;;;;;;;;;;;;5.12;74.48;101903.41;5034449;28;19956;-32
2022/11/13 11:49:00;;;;;;;;;;;;;;;5.13;74.49;101899.94;5038111;28;19917;-32
2022/11/13 11:51:31;;;;;;;;;;;;;;;5.15;74.71;101890.44;5030667;28;19924;-31
2022/11/13 11:54:09;;;;;;;;;;;;;;;5.17;74.58;101886.13;5035730;28;19925;-32
2022/11/13 11:56:35;;;;;;;;;;;;;;;5.19;74.10;101889.69;5051799;28;19917;-31
2022/11/13 11:59:19;;;;;;;;;;;;;;;5.20;74.31;101883.59;5022501;28;19924;-31
2022/11/13 12:01:56;;;;;;;;;;;;;;;5.23;74.59;101881.09;5045760;28;19924;-34
2022/11/13 12:04:41;;;;;;;;;;;;;;;5.25;74.81;101879.44;5051874;28;20012;-33
2022/11/13 12:07:13;;;;;;;;;;;;;;;5.28;74.27;101867.28;5049868;28;19917;-34
2022/11/13 12:09:52;;;;;;;;;;;;;;;5.29;74.18;101863.81;5050384;28;19916;-33
2022/11/13 12:12:20;;;;;;;;;;;;;;;5.29;74.73;101854.25;5051519;28;19917;-31
2022/11/13 12:15:02;;;;;;;;;;;;;;;5.31;74.76;101843.84;5032735;28;20400;-32
2022/11/13 12:17:46;;;;;;;;;;;;;;;5.33;75.03;101844.78;5047402;28;19917;-35
2022/11/13 12:20:21;;;;;;;;;;;;;;;5.34;74.63;101851.78;5047548;28;20400;-35
2022/11/13 12:22:53;;;;;;;;;;;;;;;5.37;74.66;101846.66;5042097;28;19925;-35
2022/11/13 12:25:22;;;;;;;;;;;;;;;5.38;74.99;101843.19;5045939;28;19978;-31
2022/11/13 12:28:06;;;;;;;;;;;;;;;5.39;74.75;101837.09;5031553;28;19921;-35
2022/11/13 12:30:50;;;;;;;;;;;;;;;5.42;74.68;101844.16;5048358;28;19924;-33
2022/11/13 12:33:20;;;;;;;;;;;;;;;5.41;75.03;101838.06;5045816;28;19921;-34
2022/11/13 12:35:46;;;;;;;;;;;;;;;5.44;74.99;101830.28;5034095;28;19921;-34
2022/11/13 12:38:30;;;;;;;;;;;;;;;5.46;74.68;101833.84;5046706;28;20393;-34
2022/11/13 12:40:55;;;;;;;;;;;;;;;5.46;74.83;101831.22;5048200;28;19916;-34
2022/11/13 12:43:29;;;;;;;;;;;;;;;5.48;75.08;101828.66;5045324;28;19997;-33
2022/11/13 12:45:56;;;;;;;;;;;;;;;5.50;75.19;101822.63;5024831;28;20362;-31
2022/11/13 12:48:27;;;;;;;;;;;;;;;5.50;75.27;101817.38;5049930;28;20004;-33
2022/11/13 12:50:56;;;;;;;;;;;;;;;5.52;75.40;101825.28;5053092;28;20271;-33